Time;durP1;ratioP1;P1;durP2;ratioP2;P2;SDS_P1;SDS_P2;PMS_P1;PMS_P2;Temp;Humidity;BMP_temperature;BMP_pressure;BME280_temperature;BME280_humidity;BME280_pressure;Samples;Min_cycle;Max_cycle;Signal;HPM_P1;HPM_P2
2022/11/06 00:01:56;;;;;;;10.88;4.47;;;;;;;;;;4943182;28;20056;-75
2022/11/06 00:04:24;;;;;;;19.15;4.38;;;;;;;;;;4936464;28;20052;-75
2022/11/06 00:06:51;;;;;;;14.02;4.68;;;;;;;;;;4944188;28;20052;-76
2022/11/06 00:09:19;;;;;;;14.45;4.57;;;;;;;;;;4937561;28;20060;-75
2022/11/06 00:11:51;;;;;;;10.70;4.38;;;;;;;;;;5018312;28;20145;-75
2022/11/06 00:14:19;;;;;;;10.77;5.20;;;;;;;;;;5014062;28;20058;-75
2022/11/06 00:16:47;;;;;;;9.13;4.30;;;;;;;;;;5019249;28;20643;-75
2022/11/06 00:19:15;;;;;;;15.32;4.95;;;;;;;;;;5025589;28;20080;-76
2022/11/06 00:21:43;;;;;;;14.35;4.82;;;;;;;;;;5020932;28;20061;-76
2022/11/06 00:24:12;;;;;;;12.50;4.90;;;;;;;;;;5018414;28;20112;-75
2022/11/06 00:26:40;;;;;;;11.45;4.28;;;;;;;;;;5019830;28;20077;-77
2022/11/06 00:29:08;;;;;;;16.52;4.65;;;;;;;;;;5013049;28;20117;-76
2022/11/06 00:31:36;;;;;;;11.50;4.90;;;;;;;;;;5014194;28;20054;-76
2022/11/06 00:34:06;;;;;;;15.50;5.20;;;;;;;;;;5024174;28;20599;-76
2022/11/06 00:36:34;;;;;;;11.40;4.75;;;;;;;;;;5010926;28;20097;-76
2022/11/06 00:39:01;;;;;;;16.88;5.32;;;;;;;;;;5014176;28;20105;-76
2022/11/06 00:41:29;;;;;;;14.45;4.70;;;;;;;;;;5024802;28;20046;-76
2022/11/06 00:43:58;;;;;;;9.77;4.25;;;;;;;;;;5015678;28;20073;-76
2022/11/06 00:46:26;;;;;;;9.18;4.30;;;;;;;;;;5022544;28;20104;-75
2022/11/06 00:48:54;;;;;;;16.90;5.18;;;;;;;;;;5021770;28;20050;-75
2022/11/06 00:51:23;;;;;;;9.27;4.30;;;;;;;;;;5025553;28;20061;-75
2022/11/06 00:53:57;;;;;;;8.98;4.15;;;;;;;;;;5008462;28;20141;-75
2022/11/06 00:56:25;;;;;;;11.10;4.07;;;;;;;;;;5015143;28;20054;-75
2022/11/06 00:58:53;;;;;;;14.15;4.82;;;;;;;;;;5021562;28;20041;-76
2022/11/06 01:01:26;;;;;;;14.15;4.80;;;;;;;;;;5018168;28;20137;-76
2022/11/06 01:03:58;;;;;;;14.30;5.03;;;;;;;;;;5019079;28;20060;-75
2022/11/06 01:06:27;;;;;;;11.45;4.35;;;;;;;;;;5015744;28;20112;-76
2022/11/06 01:08:55;;;;;;;12.13;4.38;;;;;;;;;;5016456;28;20065;-75
2022/11/06 01:11:30;;;;;;;9.95;4.22;;;;;;;;;;5017846;28;20057;-76
2022/11/06 01:14:18;;;;;;;12.02;5.03;;;;;;;;;;5021898;28;20089;-76
2022/11/06 01:16:45;;;;;;;13.75;4.65;;;;;;;;;;5011992;28;20161;-75
2022/11/06 01:19:13;;;;;;;11.18;4.05;;;;;;;;;;5018218;28;20089;-75
2022/11/06 01:21:42;;;;;;;10.02;4.40;;;;;;;;;;5020928;28;20057;-76
2022/11/06 01:24:19;;;;;;;12.48;3.90;;;;;;;;;;5010502;28;20517;-76
2022/11/06 01:26:47;;;;;;;12.48;4.18;;;;;;;;;;5019882;28;20048;-76
2022/11/06 01:29:34;;;;;;;10.68;4.10;;;;;;;;;;5020682;28;20046;-76
2022/11/06 01:32:01;;;;;;;13.60;4.07;;;;;;;;;;5029142;28;20616;-75
2022/11/06 01:34:28;;;;;;;11.00;4.07;;;;;;;;;;5019338;28;20132;-75
2022/11/06 01:36:56;;;;;;;9.18;3.80;;;;;;;;;;5019759;28;20049;-76
2022/11/06 01:39:23;;;;;;;14.38;3.97;;;;;;;;;;5023413;28;20149;-76
2022/11/06 01:41:51;;;;;;;13.02;3.92;;;;;;;;;;5017058;28;20049;-76
2022/11/06 01:44:37;;;;;;;15.50;4.10;;;;;;;;;;5012021;28;20498;-77
2022/11/06 01:47:06;;;;;;;9.45;3.70;;;;;;;;;;5012734;28;20137;-76
2022/11/06 01:49:36;;;;;;;9.82;3.47;;;;;;;;;;5022945;28;20046;-75
2022/11/06 01:52:08;;;;;;;11.25;3.83;;;;;;;;;;5015841;28;20440;-75
2022/11/06 01:54:37;;;;;;;13.75;4.28;;;;;;;;;;5016966;28;20049;-76
2022/11/06 01:57:05;;;;;;;10.43;3.88;;;;;;;;;;5021803;28;20062;-76
2022/11/06 01:59:34;;;;;;;19.23;3.50;;;;;;;;;;5022511;28;20109;-75
2022/11/06 02:02:01;;;;;;;14.02;3.88;;;;;;;;;;5025599;28;20513;-76
2022/11/06 02:04:31;;;;;;;15.02;3.83;;;;;;;;;;5023879;28;20142;-76
2022/11/06 02:06:59;;;;;;;9.82;3.70;;;;;;;;;;5017377;28;20109;-76
2022/11/06 02:09:28;;;;;;;10.50;3.45;;;;;;;;;;5018113;28;20046;-75
2022/11/06 02:12:00;;;;;;;11.20;4.05;;;;;;;;;;5020119;28;20085;-75
2022/11/06 02:14:35;;;;;;;9.80;3.80;;;;;;;;;;5018611;28;20435;-75
2022/11/06 02:17:06;;;;;;;7.72;3.10;;;;;;;;;;5018240;28;20515;-75
2022/11/06 02:19:33;;;;;;;10.95;3.67;;;;;;;;;;5018661;28;20074;-75
2022/11/06 02:22:01;;;;;;;9.27;3.38;;;;;;;;;;5015455;28;20113;-75
2022/11/06 02:24:47;;;;;;;12.52;4.93;;;;;;;;;;5011808;28;20508;-76
2022/11/06 02:27:23;;;;;;;11.63;3.72;;;;;;;;;;5022095;28;20141;-76
2022/11/06 02:30:10;;;;;;;12.90;3.35;;;;;;;;;;5014764;28;20054;-75
2022/11/06 02:32:40;;;;;;;8.90;3.20;;;;;;;;;;5020983;28;20054;-76
2022/11/06 02:35:42;;;;;;;10.43;3.58;;;;;;;;;;5021417;28;20050;-76
2022/11/06 02:38:11;;;;;;;8.55;3.03;;;;;;;;;;4998573;28;20168;-75
2022/11/06 02:40:42;;;;;;;10.75;2.92;;;;;;;;;;4997017;28;20149;-75
2022/11/06 02:43:09;;;;;;;10.00;3.13;;;;;;;;;;5001526;28;20902;-76
2022/11/06 02:45:57;;;;;;;8.85;3.15;;;;;;;;;;4999197;28;20042;-75
2022/11/06 02:48:30;;;;;;;11.35;3.30;;;;;;;;;;5000013;28;20054;-75
2022/11/06 02:51:00;;;;;;;15.18;3.60;;;;;;;;;;4995071;28;20061;-75
2022/11/06 02:53:29;;;;;;;9.65;3.17;;;;;;;;;;4996697;28;20051;-76
2022/11/06 02:55:59;;;;;;;9.00;2.88;;;;;;;;;;4999527;28;21440;-75
2022/11/06 02:58:46;;;;;;;8.57;3.00;;;;;;;;;;4993741;28;20081;-75
2022/11/06 03:01:19;;;;;;;12.80;2.92;;;;;;;;;;4990965;28;20050;-75
2022/11/06 03:03:50;;;;;;;11.15;2.80;;;;;;;;;;4992016;28;20066;-75
2022/11/06 03:06:23;;;;;;;13.00;3.22;;;;;;;;;;4991710;28;20142;-76
2022/11/06 03:09:02;;;;;;;13.18;3.03;;;;;;;;;;5003040;28;20100;-75
2022/11/06 03:11:37;;;;;;;10.40;2.95;;;;;;;;;;5001022;28;20054;-74
2022/11/06 03:14:11;;;;;;;14.75;3.08;;;;;;;;;;5021747;28;20058;-75
2022/11/06 03:16:47;;;;;;;6.97;2.78;;;;;;;;;;5024106;28;20050;-75
2022/11/06 03:19:16;;;;;;;9.00;2.67;;;;;;;;;;5020252;28;20050;-75
2022/11/06 03:22:07;;;;;;;9.68;3.03;;;;;;;;;;5018191;28;20085;-76
2022/11/06 03:24:46;;;;;;;14.85;3.40;;;;;;;;;;5025337;28;20060;-75
2022/11/06 03:27:23;;;;;;;10.35;3.17;;;;;;;;;;5019720;28;20514;-75
2022/11/06 03:29:54;;;;;;;11.75;2.88;;;;;;;;;;5013835;28;20068;-75
2022/11/06 03:32:38;;;;;;;14.82;3.47;;;;;;;;;;5021620;28;20062;-75
2022/11/06 03:35:21;;;;;;;7.43;2.67;;;;;;;;;;5017478;28;20054;-75
2022/11/06 03:38:09;;;;;;;16.40;3.63;;;;;;;;;;5020709;28;20054;-75
2022/11/06 03:40:41;;;;;;;10.48;2.90;;;;;;;;;;5017689;28;20495;-74
2022/11/06 03:43:10;;;;;;;7.07;2.90;;;;;;;;;;5016427;28;20939;-75
2022/11/06 03:45:40;;;;;;;9.38;2.40;;;;;;;;;;5021912;28;20050;-74
2022/11/06 03:48:15;;;;;;;6.88;2.40;;;;;;;;;;5013227;28;20055;-75
2022/11/06 03:50:57;;;;;;;10.07;2.88;;;;;;;;;;5021255;28;20841;-75
2022/11/06 03:53:27;;;;;;;10.18;2.58;;;;;;;;;;5012947;28;20503;-75
2022/11/06 03:55:57;;;;;;;9.98;2.63;;;;;;;;;;5008092;28;20535;-75
2022/11/06 03:58:31;;;;;;;10.20;2.78;;;;;;;;;;5007197;28;20125;-74
2022/11/06 04:01:02;;;;;;;5.78;2.38;;;;;;;;;;5020766;28;20061;-75
2022/11/06 04:03:37;;;;;;;9.63;2.60;;;;;;;;;;5015083;28;20057;-75
2022/11/06 04:06:10;;;;;;;12.52;2.75;;;;;;;;;;5022240;28;20824;-75
2022/11/06 04:14:13;;;;;;;9.52;2.85;;;;;;;;;;5013280;28;20133;-75
2022/11/06 04:16:47;;;;;;;12.88;2.50;;;;;;;;;;5011205;28;20415;-75
2022/11/06 04:19:21;;;;;;;5.18;2.20;;;;;;;;;;5016009;28;20046;-75
2022/11/06 04:22:07;;;;;;;11.30;2.45;;;;;;;;;;5014768;28;20047;-76
2022/11/06 04:27:57;;;;;;;8.25;2.80;;;;;;;;;;5021395;28;20046;-74
2022/11/06 04:30:25;;;;;;;5.72;2.33;;;;;;;;;;5015733;28;20108;-74
2022/11/06 04:33:12;;;;;;;10.43;2.70;;;;;;;;;;5014562;28;20057;-74
2022/11/06 04:35:46;;;;;;;11.25;2.30;;;;;;;;;;5015999;28;20061;-74
2022/11/06 04:38:31;;;;;;;10.20;2.53;;;;;;;;;;5014352;28;20055;-75
2022/11/06 04:41:05;;;;;;;12.55;2.50;;;;;;;;;;5014452;28;20057;-75
2022/11/06 04:43:39;;;;;;;9.90;2.80;;;;;;;;;;5018297;28;20060;-75
2022/11/06 04:46:09;;;;;;;11.70;2.45;;;;;;;;;;5008950;28;20054;-75
2022/11/06 04:48:38;;;;;;;9.25;2.67;;;;;;;;;;5021944;28;20054;-74
2022/11/06 04:51:07;;;;;;;9.02;2.58;;;;;;;;;;5014319;28;20050;-75
2022/11/06 04:53:35;;;;;;;9.20;2.42;;;;;;;;;;5019568;28;20085;-75
2022/11/06 04:56:20;;;;;;;6.30;2.30;;;;;;;;;;5014989;28;20515;-74
2022/11/06 04:58:51;;;;;;;5.15;2.08;;;;;;;;;;5026461;28;20061;-74
2022/11/06 05:01:19;;;;;;;7.47;2.00;;;;;;;;;;5012753;28;20094;-75
2022/11/06 05:03:46;;;;;;;8.95;2.78;;;;;;;;;;5019995;28;20093;-75
2022/11/06 05:06:13;;;;;;;8.30;2.50;;;;;;;;;;5025093;28;20061;-74
2022/11/06 05:08:41;;;;;;;11.95;2.70;;;;;;;;;;5024111;28;20144;-74
2022/11/06 05:11:08;;;;;;;7.72;2.40;;;;;;;;;;5017481;28;20057;-75
2022/11/06 05:13:37;;;;;;;9.40;2.40;;;;;;;;;;5012275;28;20504;-75
2022/11/06 05:16:07;;;;;;;13.27;2.47;;;;;;;;;;5025533;28;20929;-74
2022/11/06 05:18:34;;;;;;;6.90;1.92;;;;;;;;;;5011224;28;20069;-75
2022/11/06 05:23:48;;;;;;;9.48;2.63;;;;;;;;;;5018241;28;20069;-75
2022/11/06 05:26:16;;;;;;;11.20;2.85;;;;;;;;;;5018449;28;20181;-75
2022/11/06 05:28:43;;;;;;;10.20;2.92;;;;;;;;;;5014911;28;20057;-75
2022/11/06 05:31:11;;;;;;;13.88;2.80;;;;;;;;;;5019817;28;20149;-74
2022/11/06 05:33:38;;;;;;;3.75;2.10;;;;;;;;;;5021782;28;20097;-75
2022/11/06 05:36:06;;;;;;;7.20;2.40;;;;;;;;;;5015999;28;20046;-74
2022/11/06 05:38:34;;;;;;;12.93;2.47;;;;;;;;;;5025015;28;20076;-75
2022/11/06 05:41:01;;;;;;;10.98;2.33;;;;;;;;;;5021442;28;20050;-74
2022/11/06 05:43:28;;;;;;;5.05;2.00;;;;;;;;;;5012447;28;20042;-75
2022/11/06 05:45:57;;;;;;;12.02;2.50;;;;;;;;;;5022421;28;20109;-74
2022/11/06 05:48:24;;;;;;;8.52;2.38;;;;;;;;;;5014367;28;20058;-74
2022/11/06 05:50:51;;;;;;;8.43;2.17;;;;;;;;;;5012413;28;20058;-75
2022/11/06 05:53:19;;;;;;;12.52;2.97;;;;;;;;;;5022460;28;20487;-75
2022/11/06 05:55:46;;;;;;;11.13;2.33;;;;;;;;;;5022398;28;20077;-75
2022/11/06 05:58:14;;;;;;;6.05;2.28;;;;;;;;;;5025005;28;20051;-75
2022/11/06 06:00:42;;;;;;;6.35;2.20;;;;;;;;;;5015790;28;20446;-75
2022/11/06 06:03:11;;;;;;;9.43;2.55;;;;;;;;;;5024630;28;20050;-75
2022/11/06 06:05:38;;;;;;;9.02;2.83;;;;;;;;;;5018638;28;20050;-76
2022/11/06 06:08:06;;;;;;;18.98;3.90;;;;;;;;;;5015716;28;20055;-75
2022/11/06 06:10:33;;;;;;;10.80;2.28;;;;;;;;;;5027307;28;20133;-76
2022/11/06 06:13:01;;;;;;;6.05;2.35;;;;;;;;;;5009798;28;20054;-75
2022/11/06 06:15:28;;;;;;;8.68;2.45;;;;;;;;;;5021245;28;20041;-75
2022/11/06 06:17:57;;;;;;;9.95;2.80;;;;;;;;;;5016194;28;20050;-74
2022/11/06 06:20:25;;;;;;;9.63;2.70;;;;;;;;;;5020226;28;20056;-75
2022/11/06 06:22:54;;;;;;;8.80;2.55;;;;;;;;;;5022847;28;20057;-75
2022/11/06 06:25:21;;;;;;;7.32;2.40;;;;;;;;;;5014924;28;20045;-76
2022/11/06 06:27:49;;;;;;;7.30;2.42;;;;;;;;;;5022199;28;20057;-75
2022/11/06 06:30:17;;;;;;;9.80;2.60;;;;;;;;;;5016864;28;20054;-75
2022/11/06 06:32:46;;;;;;;5.75;2.22;;;;;;;;;;5025836;28;20060;-75
2022/11/06 06:35:13;;;;;;;8.45;2.42;;;;;;;;;;5026701;28;20131;-75
2022/11/06 06:37:40;;;;;;;8.35;2.30;;;;;;;;;;5023660;28;20053;-75
2022/11/06 06:40:08;;;;;;;15.20;2.92;;;;;;;;;;5013330;28;20097;-75
2022/11/06 06:42:35;;;;;;;9.32;2.60;;;;;;;;;;5023321;28;20077;-75
2022/11/06 06:45:06;;;;;;;10.93;3.58;;;;;;;;;;5019967;28;20145;-75
2022/11/06 06:47:35;;;;;;;13.88;2.72;;;;;;;;;;5010725;28;20059;-75
2022/11/06 06:50:02;;;;;;;8.95;2.45;;;;;;;;;;5018086;28;20105;-76
2022/11/06 06:52:30;;;;;;;9.85;2.90;;;;;;;;;;5023188;28;20060;-75
2022/11/06 06:54:57;;;;;;;7.43;2.72;;;;;;;;;;5029156;28;20057;-76
2022/11/06 06:57:24;;;;;;;10.40;2.60;;;;;;;;;;5017390;28;20149;-75
2022/11/06 06:59:52;;;;;;;9.82;2.40;;;;;;;;;;5023799;28;20042;-76
2022/11/06 07:02:19;;;;;;;6.18;2.55;;;;;;;;;;5020870;28;20916;-76
2022/11/06 07:04:47;;;;;;;7.85;2.50;;;;;;;;;;5014905;28;20484;-75
2022/11/06 07:07:14;;;;;;;4.90;2.22;;;;;;;;;;5038137;28;20782;-76
2022/11/06 07:09:42;;;;;;;10.70;3.28;;;;;;;;;;5020398;28;20053;-76
2022/11/06 07:12:12;;;;;;;11.30;2.60;;;;;;;;;;5024086;28;20054;-76
2022/11/06 07:14:42;;;;;;;6.05;2.40;;;;;;;;;;5014352;28;20721;-75
2022/11/06 07:17:10;;;;;;;10.30;2.58;;;;;;;;;;5020092;28;20060;-76
2022/11/06 07:19:37;;;;;;;9.23;2.50;;;;;;;;;;5016156;28;21220;-75
2022/11/06 07:22:05;;;;;;;11.00;2.42;;;;;;;;;;5018549;28;20129;-76
2022/11/06 07:24:32;;;;;;;6.40;2.30;;;;;;;;;;5020442;28;20108;-76
2022/11/06 07:27:00;;;;;;;8.02;2.90;;;;;;;;;;5017674;28;20053;-75
2022/11/06 07:29:28;;;;;;;8.02;2.30;;;;;;;;;;5017950;28;20059;-76
2022/11/06 07:31:56;;;;;;;6.20;2.42;;;;;;;;;;5020554;28;20064;-76
2022/11/06 07:34:23;;;;;;;7.95;2.45;;;;;;;;;;5020326;28;20058;-76
2022/11/06 07:36:50;;;;;;;8.68;2.53;;;;;;;;;;5017651;28;20050;-76
2022/11/06 07:39:18;;;;;;;8.40;2.25;;;;;;;;;;5018070;28;20054;-76
2022/11/06 07:41:51;;;;;;;10.10;2.58;;;;;;;;;;5017711;28;20124;-76
2022/11/06 07:44:18;;;;;;;8.75;2.10;;;;;;;;;;5022629;28;20495;-76
2022/11/06 07:46:45;;;;;;;6.57;2.47;;;;;;;;;;5020472;28;20049;-75
2022/11/06 07:49:14;;;;;;;8.10;3.58;;;;;;;;;;5021807;28;20060;-75
2022/11/06 07:51:43;;;;;;;8.55;2.33;;;;;;;;;;5018525;28;20064;-76
2022/11/06 07:54:10;;;;;;;6.63;2.63;;;;;;;;;;5017935;28;20057;-75
2022/11/06 07:56:41;;;;;;;7.30;2.40;;;;;;;;;;5022269;28;20057;-76
2022/11/06 07:59:08;;;;;;;10.23;2.70;;;;;;;;;;5023530;28;20056;-75
2022/11/06 08:01:35;;;;;;;3.63;2.10;;;;;;;;;;5016652;28;20518;-75
2022/11/06 08:04:06;;;;;;;7.68;2.40;;;;;;;;;;5023767;28;20451;-76
2022/11/06 08:06:33;;;;;;;7.72;2.45;;;;;;;;;;5017231;28;20057;-76
2022/11/06 08:09:04;;;;;;;7.65;2.10;;;;;;;;;;5018384;28;20058;-76
2022/11/06 08:11:31;;;;;;;11.90;2.67;;;;;;;;;;5009677;28;20046;-76
2022/11/06 08:14:02;;;;;;;6.20;1.85;;;;;;;;;;5022693;28;20136;-75
2022/11/06 08:16:30;;;;;;;5.43;2.05;;;;;;;;;;5025588;28;20534;-76
2022/11/06 08:18:57;;;;;;;10.60;2.08;;;;;;;;;;5015740;28;20056;-76
2022/11/06 08:21:24;;;;;;;5.20;1.80;;;;;;;;;;5020222;28;20595;-75
2022/11/06 08:23:51;;;;;;;9.90;2.05;;;;;;;;;;5018741;28;20045;-75
2022/11/06 08:26:21;;;;;;;8.93;2.53;;;;;;;;;;5021057;28;20058;-75
2022/11/06 08:28:49;;;;;;;8.75;2.47;;;;;;;;;;5022467;28;20507;-76
2022/11/06 08:31:17;;;;;;;10.00;2.47;;;;;;;;;;5024234;28;20084;-76
2022/11/06 08:33:44;;;;;;;8.13;2.47;;;;;;;;;;5018776;28;20050;-76
2022/11/06 08:36:12;;;;;;;6.65;2.00;;;;;;;;;;5023228;28;20053;-76
2022/11/06 08:38:39;;;;;;;3.67;1.67;;;;;;;;;;5020337;28;20046;-77
2022/11/06 08:41:08;;;;;;;4.15;1.75;;;;;;;;;;5017065;28;20047;-76
2022/11/06 08:43:36;;;;;;;5.38;1.90;;;;;;;;;;5012779;28;20136;-76
2022/11/06 08:46:04;;;;;;;5.70;2.00;;;;;;;;;;5014113;28;20101;-76
2022/11/06 08:48:32;;;;;;;4.70;1.77;;;;;;;;;;5025299;28;20096;-76
2022/11/06 08:51:01;;;;;;;5.45;1.60;;;;;;;;;;5016882;28;20051;-75
2022/11/06 08:53:28;;;;;;;8.90;1.88;;;;;;;;;;5013986;28;20054;-75
2022/11/06 08:55:56;;;;;;;5.70;2.00;;;;;;;;;;5018443;28;20064;-76
2022/11/06 08:58:23;;;;;;;6.47;1.90;;;;;;;;;;5016379;28;20172;-76
2022/11/06 09:00:50;;;;;;;7.25;1.85;;;;;;;;;;5023182;28;20526;-76
2022/11/06 09:03:21;;;;;;;6.75;1.88;;;;;;;;;;5016704;28;20078;-76
2022/11/06 09:05:48;;;;;;;5.68;1.88;;;;;;;;;;5015464;28;20054;-76
2022/11/06 09:08:23;;;;;;;6.40;2.05;;;;;;;;;;5011090;28;20056;-75
2022/11/06 09:10:50;;;;;;;10.73;1.90;;;;;;;;;;5022853;28;20573;-75
2022/11/06 09:13:25;;;;;;;6.47;1.90;;;;;;;;;;5015623;28;20061;-77
2022/11/06 09:15:53;;;;;;;6.40;1.88;;;;;;;;;;5026264;28;20054;-75
2022/11/06 09:18:20;;;;;;;5.45;1.70;;;;;;;;;;5016987;28;20054;-75
2022/11/06 09:20:47;;;;;;;6.20;2.03;;;;;;;;;;5023537;28;20046;-75
2022/11/06 09:23:17;;;;;;;5.18;1.90;;;;;;;;;;5012972;28;20508;-75
2022/11/06 09:25:44;;;;;;;5.00;1.77;;;;;;;;;;5015862;28;20054;-75
2022/11/06 09:28:12;;;;;;;7.43;1.77;;;;;;;;;;5013624;28;20055;-75
2022/11/06 09:30:39;;;;;;;7.30;1.80;;;;;;;;;;5014979;28;20050;-75
2022/11/06 09:33:07;;;;;;;5.75;1.67;;;;;;;;;;5011172;28;20050;-75
2022/11/06 09:35:39;;;;;;;7.47;1.80;;;;;;;;;;5015488;28;20141;-75
2022/11/06 09:38:09;;;;;;;6.35;1.85;;;;;;;;;;5017153;28;20101;-75
2022/11/06 09:40:39;;;;;;;7.18;1.88;;;;;;;;;;5011592;28;20063;-75
2022/11/06 09:43:11;;;;;;;12.35;2.10;;;;;;;;;;5025452;28;20512;-75
2022/11/06 09:45:40;;;;;;;8.00;2.08;;;;;;;;;;5017109;28;20149;-75
2022/11/06 09:48:10;;;;;;;6.10;1.80;;;;;;;;;;5010016;28;20876;-75
2022/11/06 09:50:44;;;;;;;7.43;1.77;;;;;;;;;;5024760;28;20057;-75
2022/11/06 09:53:32;;;;;;;7.75;1.80;;;;;;;;;;5024735;28;20050;-75
2022/11/06 09:56:00;;;;;;;3.08;1.48;;;;;;;;;;5013890;28;20054;-76
2022/11/06 09:58:31;;;;;;;11.60;1.90;;;;;;;;;;5018363;28;20101;-76
2022/11/06 10:01:00;;;;;;;6.63;1.52;;;;;;;;;;5019700;28;20104;-75
2022/11/06 10:03:41;;;;;;;5.72;1.48;;;;;;;;;;5019569;28;20050;-76
2022/11/06 10:06:08;;;;;;;7.10;1.50;;;;;;;;;;5015435;28;20491;-75
2022/11/06 10:08:36;;;;;;;6.97;1.70;;;;;;;;;;5020113;28;20081;-76
2022/11/06 10:11:34;;;;;;;4.80;1.52;;;;;;;;;;5013691;28;20061;-75
2022/11/06 10:14:08;;;;;;;5.35;1.50;;;;;;;;;;5017739;28;20042;-76
2022/11/06 10:17:02;;;;;;;4.15;1.38;;;;;;;;;;5017757;28;20049;-77
2022/11/06 10:19:30;;;;;;;6.25;1.35;;;;;;;;;;5026844;28;20112;-76
2022/11/06 10:22:04;;;;;;;6.43;1.20;;;;;;;;;;5030708;28;20076;-76
2022/11/06 10:24:31;;;;;;;;;;;;;;;;;;5018722;28;20057;-76
2022/11/06 10:26:59;;;;;;;4.10;1.30;;;;;;;;;;5011697;28;42673;-75
2022/11/06 10:29:32;;;;;;;4.20;1.40;;;;;;;;;;5017339;28;20074;-75
2022/11/06 10:32:18;;;;;;;5.00;1.55;;;;;;;;;;5013003;28;20116;-75
2022/11/06 10:34:47;;;;;;;4.75;1.52;;;;;;;;;;5025470;28;20136;-76
2022/11/06 10:37:23;;;;;;;5.93;1.50;;;;;;;;;;5013746;28;20043;-75
2022/11/06 10:39:50;;;;;;;5.40;1.65;;;;;;;;;;5019370;28;20057;-76
2022/11/06 10:42:20;;;;;;;7.13;2.22;;;;;;;;;;5022136;28;20054;-75
2022/11/06 10:44:56;;;;;;;6.45;1.50;;;;;;;;;;5023835;28;20054;-75
2022/11/06 10:47:28;;;;;;;8.93;2.20;;;;;;;;;;5017451;28;20549;-75
2022/11/06 10:49:58;;;;;;;4.55;1.70;;;;;;;;;;5012578;28;20060;-75
2022/11/06 10:52:26;;;;;;;8.95;1.83;;;;;;;;;;5024268;28;20125;-76
2022/11/06 10:54:53;;;;;;;5.88;1.60;;;;;;;;;;5022377;28;20086;-76
2022/11/06 10:57:20;;;;;;;4.97;1.67;;;;;;;;;;5028996;28;20069;-75
2022/11/06 10:59:49;;;;;;;7.93;1.92;;;;;;;;;;5030896;28;20064;-77
2022/11/06 11:02:25;;;;;;;4.43;1.50;;;;;;;;;;5034774;28;20049;-77
2022/11/06 11:04:52;;;;;;;8.23;2.05;;;;;;;;;;5017272;28;20046;-75
2022/11/06 11:07:25;;;;;;;7.13;2.05;;;;;;;;;;5013571;28;20093;-76
2022/11/06 11:09:53;;;;;;;6.15;1.40;;;;;;;;;;5017181;28;20129;-75
2022/11/06 11:12:20;;;;;;;5.95;1.80;;;;;;;;;;5026876;28;20053;-76
2022/11/06 11:15:08;;;;;;;5.60;1.60;;;;;;;;;;5010714;28;20046;-76
2022/11/06 11:17:35;;;;;;;3.92;1.42;;;;;;;;;;5015466;28;20053;-76
2022/11/06 11:20:03;;;;;;;3.72;1.33;;;;;;;;;;5020995;28;20522;-75
2022/11/06 11:22:30;;;;;;;8.15;2.10;;;;;;;;;;5024752;28;20198;-75
2022/11/06 11:25:00;;;;;;;4.20;1.35;;;;;;;;;;5020981;28;20042;-75
2022/11/06 11:27:42;;;;;;;5.43;1.52;;;;;;;;;;5025602;28;20050;-75
2022/11/06 11:30:21;;;;;;;7.30;1.75;;;;;;;;;;5023567;28;20053;-76
2022/11/06 11:32:49;;;;;;;9.52;1.70;;;;;;;;;;5010997;28;20053;-75
2022/11/06 11:35:19;;;;;;;3.60;1.80;;;;;;;;;;5014206;28;20116;-76
2022/11/06 11:37:46;;;;;;;6.28;1.60;;;;;;;;;;5030460;28;20080;-75
2022/11/06 11:40:35;;;;;;;9.20;1.35;;;;;;;;;;5019391;28;20054;-76
2022/11/06 11:43:17;;;;;;;5.55;1.60;;;;;;;;;;5018253;28;20046;-75
2022/11/06 11:46:01;;;;;;;5.78;1.48;;;;;;;;;;5014976;28;20561;-76
2022/11/06 11:48:42;;;;;;;8.00;1.40;;;;;;;;;;5019287;28;20089;-75
2022/11/06 11:51:12;;;;;;;3.28;1.30;;;;;;;;;;5022301;28;20054;-76
2022/11/06 11:53:40;;;;;;;4.47;1.50;;;;;;;;;;5020270;28;20138;-76
2022/11/06 11:56:16;;;;;;;3.63;1.27;;;;;;;;;;5019081;28;20146;-75
2022/11/06 11:59:03;;;;;;;5.45;1.65;;;;;;;;;;5016060;28;20058;-76
2022/11/06 12:01:39;;;;;;;7.68;1.45;;;;;;;;;;5015441;28;20552;-76
2022/11/06 12:04:30;;;;;;;6.32;1.65;;;;;;;;;;5015587;28;20143;-75
2022/11/06 12:07:01;;;;;;;3.25;1.30;;;;;;;;;;5005401;28;20066;-75
2022/11/06 12:09:31;;;;;;;6.68;1.83;;;;;;;;;;5021510;28;20057;-75
2022/11/06 12:11:59;;;;;;;5.60;1.40;;;;;;;;;;5013475;28;20054;-75
2022/11/06 12:14:29;;;;;;;6.28;1.80;;;;;;;;;;5019617;28;20146;-75
2022/11/06 12:17:05;;;;;;;8.00;2.08;;;;;;;;;;5016966;28;20054;-75
2022/11/06 12:19:34;;;;;;;6.47;1.50;;;;;;;;;;5012737;28;20117;-75
2022/11/06 12:22:05;;;;;;;5.38;1.45;;;;;;;;;;5015968;28;20061;-76
2022/11/06 12:24:42;;;;;;;5.90;1.58;;;;;;;;;;5024550;28;20050;-75
2022/11/06 12:27:15;;;;;;;4.68;1.45;;;;;;;;;;5014590;28;20065;-75
2022/11/06 12:29:45;;;;;;;5.38;1.30;;;;;;;;;;5018817;28;20134;-76
2022/11/06 12:32:22;;;;;;;5.55;1.65;;;;;;;;;;5013164;28;20150;-75
2022/11/06 12:34:52;;;;;;;5.38;1.50;;;;;;;;;;5010752;28;20447;-75
2022/11/06 12:37:23;;;;;;;4.72;1.33;;;;;;;;;;5015841;28;20072;-75
2022/11/06 12:39:54;;;;;;;5.55;1.80;;;;;;;;;;5019719;28;20057;-76
2022/11/06 12:42:22;;;;;;;5.00;1.52;;;;;;;;;;5025541;28;20060;-75
2022/11/06 12:44:52;;;;;;;8.02;1.48;;;;;;;;;;5023846;28;20056;-75
2022/11/06 12:47:26;;;;;;;5.20;1.33;;;;;;;;;;5009705;28;20050;-76
2022/11/06 12:50:07;;;;;;;6.78;2.30;;;;;;;;;;5014427;28;20053;-75
2022/11/06 12:52:43;;;;;;;4.88;1.45;;;;;;;;;;5013241;28;20522;-75
2022/11/06 12:55:13;;;;;;;6.10;1.40;;;;;;;;;;5016492;28;20518;-75
2022/11/06 12:57:47;;;;;;;9.75;1.48;;;;;;;;;;5019689;28;20500;-75
2022/11/06 13:00:18;;;;;;;6.57;1.38;;;;;;;;;;5017822;28;20089;-75
2022/11/06 13:03:03;;;;;;;6.25;1.77;;;;;;;;;;5009933;28;20061;-75
2022/11/06 13:05:36;;;;;;;8.55;1.63;;;;;;;;;;5007285;28;20046;-76
2022/11/06 13:08:10;;;;;;;6.13;1.60;;;;;;;;;;5028564;28;20056;-76
2022/11/06 13:10:38;;;;;;;4.65;1.45;;;;;;;;;;5019398;28;20058;-75
2022/11/06 13:13:24;;;;;;;8.80;1.65;;;;;;;;;;5020655;28;20050;-76
2022/11/06 13:15:57;;;;;;;4.93;1.58;;;;;;;;;;5010009;28;20126;-76
2022/11/06 13:18:30;;;;;;;7.43;1.60;;;;;;;;;;5020389;28;20109;-76
2022/11/06 13:21:01;;;;;;;7.68;1.63;;;;;;;;;;5013633;28;20046;-76
2022/11/06 13:23:39;;;;;;;5.20;1.52;;;;;;;;;;5017910;28;20049;-76
2022/11/06 13:26:16;;;;;;;6.70;1.40;;;;;;;;;;5017169;28;20053;-76
2022/11/06 13:28:45;;;;;;;4.75;1.27;;;;;;;;;;5022466;28;20062;-76
2022/11/06 13:31:14;;;;;;;4.90;1.20;;;;;;;;;;5018317;28;20100;-75
2022/11/06 13:33:47;;;;;;;8.80;1.38;;;;;;;;;;5017622;28;20077;-75
2022/11/06 13:36:18;;;;;;;6.80;1.30;;;;;;;;;;5029908;28;20054;-76
2022/11/06 13:38:48;;;;;;;5.10;1.30;;;;;;;;;;5010950;28;20054;-76
2022/11/06 13:41:23;;;;;;;5.50;1.30;;;;;;;;;;5023772;28;20058;-77
2022/11/06 13:43:54;;;;;;;4.23;1.60;;;;;;;;;;5022768;28;20057;-76
2022/11/06 13:46:31;;;;;;;5.40;1.80;;;;;;;;;;5039877;28;20758;-76
2022/11/06 13:49:04;;;;;;;6.88;1.52;;;;;;;;;;5020720;28;20109;-77
2022/11/06 13:51:37;;;;;;;9.73;1.50;;;;;;;;;;5024773;28;20057;-76
2022/11/06 13:54:23;;;;;;;5.60;1.75;;;;;;;;;;5020294;28;20124;-76
2022/11/06 13:56:50;;;;;;;6.43;1.73;;;;;;;;;;5019118;28;20057;-77
2022/11/06 13:59:23;;;;;;;7.15;1.63;;;;;;;;;;5020203;28;20893;-77
2022/11/06 14:02:11;;;;;;;6.03;1.60;;;;;;;;;;5018705;28;20054;-77
2022/11/06 14:04:50;;;;;;;9.88;1.70;;;;;;;;;;5017501;28;20058;-77
2022/11/06 14:07:21;;;;;;;7.00;1.60;;;;;;;;;;5017464;28;20157;-77
2022/11/06 14:09:51;;;;;;;4.93;1.70;;;;;;;;;;5018431;28;20054;-78
2022/11/06 14:12:21;;;;;;;8.63;1.83;;;;;;;;;;5014259;28;20034;-77
2022/11/06 14:14:52;;;;;;;11.77;1.80;;;;;;;;;;5017598;28;20054;-78
2022/11/06 14:17:22;;;;;;;10.27;2.00;;;;;;;;;;5020525;28;20538;-77
2022/11/06 14:19:49;;;;;;;4.85;1.77;;;;;;;;;;5026643;28;20058;-78
2022/11/06 14:22:31;;;;;;;7.93;1.80;;;;;;;;;;5018834;28;20057;-78
2022/11/06 14:24:59;;;;;;;6.15;1.50;;;;;;;;;;5028797;28;20095;-78
2022/11/06 14:27:28;;;;;;;5.15;1.80;;;;;;;;;;5020318;28;20061;-78
2022/11/06 14:29:57;;;;;;;13.27;2.22;;;;;;;;;;5023769;28;20057;-78
2022/11/06 14:32:30;;;;;;;8.15;1.75;;;;;;;;;;5014487;28;20054;-78
2022/11/06 14:35:18;;;;;;;9.25;2.05;;;;;;;;;;5014074;28;20054;-77
2022/11/06 14:37:46;;;;;;;12.00;1.95;;;;;;;;;;5029530;28;20567;-78
2022/11/06 14:40:13;;;;;;;4.68;1.50;;;;;;;;;;5015512;28;20062;-78
2022/11/06 14:42:43;;;;;;;7.68;2.00;;;;;;;;;;5027185;28;20081;-78
2022/11/06 14:45:15;;;;;;;6.25;1.63;;;;;;;;;;5020609;28;20082;-78
2022/11/06 14:47:45;;;;;;;5.05;1.40;;;;;;;;;;5016830;28;20054;-78
2022/11/06 14:50:21;;;;;;;9.63;1.60;;;;;;;;;;5020936;28;20058;-78
2022/11/06 14:53:00;;;;;;;6.38;1.50;;;;;;;;;;5018095;28;20046;-78
2022/11/06 14:55:33;;;;;;;6.13;1.65;;;;;;;;;;5024334;28;20051;-78
2022/11/06 14:58:21;;;;;;;7.32;1.85;;;;;;;;;;5021196;28;20041;-78
2022/11/06 15:01:12;;;;;;;8.93;1.80;;;;;;;;;;5015992;28;20058;-80
2022/11/06 15:03:42;;;;;;;10.15;1.67;;;;;;;;;;5015489;28;20542;-79
2022/11/06 15:06:17;;;;;;;12.27;1.85;;;;;;;;;;5020970;28;20050;-78
2022/11/06 15:08:44;;;;;;;6.97;1.92;;;;;;;;;;5025713;28;20047;-78
2022/11/06 15:11:31;;;;;;;6.28;1.70;;;;;;;;;;5023585;28;20054;-78
2022/11/06 15:13:58;;;;;;;6.75;1.75;;;;;;;;;;5029204;28;20050;-78
2022/11/06 15:16:42;;;;;;;6.33;1.63;;;;;;;;;;5030226;28;20049;-78